LRFT - airport unknown

Compiled: 17:18:06 on 20/10/2018

Latest METAR/SPECI Reports

METAR LRFT 201000Z 34006KT 4000 -RA BR OVC050 15/12 Q1020 GRN WHT=

Previous reports

METAR LRFT 200900Z 35010KT 6000 SCT080 BKN100 16/11 Q1019 WHT WHT=
METAR LRFT 191800Z VRB03KT 9999 FEW070 14/11 Q1017 BLU BLU=
METAR LRFT 191700Z VRB03KT 8000 FEW060 16/12 Q1017 BLU BLU=
METAR LRFT 191600Z VRB03KT 6000 FEW040 BKN200 16/12 Q1017 WHT WHT=

Latest TAF report

TAF LRFT 181700Z 1818/1918 05006KT 9999 SCT050 BKN100 TEMPO 1818/1821 SCT060CB TEMPO 1902/1906 3000 BR=

Valid WARNINGS

No valid warnings for LRFT